Terminal Aerodrome Forecast
Issued by NWS

Home | Current Version | Previous Version | Text Only | Print | Product List | Glossary On
Versions: 1 2 3 4 5 6 7 8 9 10 11 12 13 14
000
FTUS41 KBTV 302300
TAFMPV
TAF
KMPV 302332Z 3100/3124 19007KT P6SM BKN200
     FM310600 19007KT P6SM BKN110 BKN200
     FM311100 19006KT P6SM VCSH OVC050
     FM311400 20010G18KT 6SM -SHRA OVC035=

USA.gov is the U.S. government's official web portal to all federal, state and local government web resources and services.